sensor_id;sensor_type;location;lat;lon;timestamp;temperature;humidity
66710;DHT22;53624;0.000;0.000;2022-09-09T00:02:22;19.20;99.90
66710;DHT22;53624;0.000;0.000;2022-09-09T00:04:53;19.20;99.90
66710;DHT22;53624;0.000;0.000;2022-09-09T00:07:29;19.10;99.90
66710;DHT22;53624;0.000;0.000;2022-09-09T00:10:06;19.10;99.90
66710;DHT22;53624;0.000;0.000;2022-09-09T00:12:36;19.00;99.90
66710;DHT22;53624;0.000;0.000;2022-09-09T00:15:10;18.90;99.90
66710;DHT22;53624;0.000;0.000;2022-09-09T00:17:40;18.90;99.90
66710;DHT22;53624;0.000;0.000;2022-09-09T00:20:11;18.70;99.90
66710;DHT22;53624;0.000;0.000;2022-09-09T00:22:46;18.70;99.90
66710;DHT22;53624;0.000;0.000;2022-09-09T00:25:15;18.70;99.90
66710;DHT22;53624;0.000;0.000;2022-09-09T00:27:45;18.70;99.90
66710;DHT22;53624;0.000;0.000;2022-09-09T00:30:14;18.70;99.90
66710;DHT22;53624;0.000;0.000;2022-09-09T00:32:45;18.70;99.90
66710;DHT22;53624;0.000;0.000;2022-09-09T00:35:18;18.60;99.90
66710;DHT22;53624;0.000;0.000;2022-09-09T00:37:47;18.60;99.90
66710;DHT22;53624;0.000;0.000;2022-09-09T00:40:18;18.50;99.90
66710;DHT22;53624;0.000;0.000;2022-09-09T00:42:46;18.40;99.90
66710;DHT22;53624;0.000;0.000;2022-09-09T00:45:19;18.40;99.90
66710;DHT22;53624;0.000;0.000;2022-09-09T00:47:51;18.40;99.90
66710;DHT22;53624;0.000;0.000;2022-09-09T00:50:29;18.40;99.90
66710;DHT22;53624;0.000;0.000;2022-09-09T00:53:05;18.40;99.90
66710;DHT22;53624;0.000;0.000;2022-09-09T00:55:40;18.40;99.90
66710;DHT22;53624;0.000;0.000;2022-09-09T00:58:10;18.40;99.90
66710;DHT22;53624;0.000;0.000;2022-09-09T01:00:39;18.40;99.90
66710;DHT22;53624;0.000;0.000;2022-09-09T01:03:13;17.80;99.90
66710;DHT22;53624;0.000;0.000;2022-09-09T01:05:44;17.10;99.90
66710;DHT22;53624;0.000;0.000;2022-09-09T01:08:17;17.00;99.90
66710;DHT22;53624;0.000;0.000;2022-09-09T01:10:49;17.10;99.90
66710;DHT22;53624;0.000;0.000;2022-09-09T01:13:22;17.10;99.90
66710;DHT22;53624;0.000;0.000;2022-09-09T01:15:50;17.00;99.90
66710;DHT22;53624;0.000;0.000;2022-09-09T01:18:21;17.30;99.90
66710;DHT22;53624;0.000;0.000;2022-09-09T01:20:51;17.60;99.90
66710;DHT22;53624;0.000;0.000;2022-09-09T01:26:35;17.90;99.90
66710;DHT22;53624;0.000;0.000;2022-09-09T01:29:09;17.90;99.90
66710;DHT22;53624;0.000;0.000;2022-09-09T01:31:40;17.90;99.90
66710;DHT22;53624;0.000;0.000;2022-09-09T01:34:10;17.90;99.90
66710;DHT22;53624;0.000;0.000;2022-09-09T01:36:40;17.70;99.90
66710;DHT22;53624;0.000;0.000;2022-09-09T01:39:09;17.60;99.90
66710;DHT22;53624;0.000;0.000;2022-09-09T01:41:39;17.60;99.90
66710;DHT22;53624;0.000;0.000;2022-09-09T01:44:10;17.50;99.90
66710;DHT22;53624;0.000;0.000;2022-09-09T01:46:40;17.40;99.90
66710;DHT22;53624;0.000;0.000;2022-09-09T01:49:14;17.40;99.90
66710;DHT22;53624;0.000;0.000;2022-09-09T01:51:43;17.40;99.90
66710;DHT22;53624;0.000;0.000;2022-09-09T01:54:13;17.40;99.90
66710;DHT22;53624;0.000;0.000;2022-09-09T01:56:46;17.40;99.90
66710;DHT22;53624;0.000;0.000;2022-09-09T01:59:18;17.30;99.90
66710;DHT22;53624;0.000;0.000;2022-09-09T02:02:03;17.10;99.90
66710;DHT22;53624;0.000;0.000;2022-09-09T02:04:36;17.00;99.90
66710;DHT22;53624;0.000;0.000;2022-09-09T02:07:10;17.20;99.90
66710;DHT22;53624;0.000;0.000;2022-09-09T02:09:41;17.20;99.90
66710;DHT22;53624;0.000;0.000;2022-09-09T02:12:13;17.30;99.90
66710;DHT22;53624;0.000;0.000;2022-09-09T02:14:50;17.30;99.90
66710;DHT22;53624;0.000;0.000;2022-09-09T02:17:22;17.30;99.90
66710;DHT22;53624;0.000;0.000;2022-09-09T02:20:13;17.30;99.90
66710;DHT22;53624;0.000;0.000;2022-09-09T02:22:58;17.20;99.90
66710;DHT22;53624;0.000;0.000;2022-09-09T02:25:26;17.20;99.90
66710;DHT22;53624;0.000;0.000;2022-09-09T02:28:03;17.10;99.90
66710;DHT22;53624;0.000;0.000;2022-09-09T02:30:32;17.10;99.90
66710;DHT22;53624;0.000;0.000;2022-09-09T02:33:02;17.10;99.90
66710;DHT22;53624;0.000;0.000;2022-09-09T02:35:48;17.10;99.90
66710;DHT22;53624;0.000;0.000;2022-09-09T02:38:19;17.00;99.90
66710;DHT22;53624;0.000;0.000;2022-09-09T02:40:57;16.70;99.90
66710;DHT22;53624;0.000;0.000;2022-09-09T02:43:30;16.70;99.90
66710;DHT22;53624;0.000;0.000;2022-09-09T02:46:01;16.60;99.90
66710;DHT22;53624;0.000;0.000;2022-09-09T02:48:32;16.60;99.90
66710;DHT22;53624;0.000;0.000;2022-09-09T02:51:04;16.60;99.90
66710;DHT22;53624;0.000;0.000;2022-09-09T02:53:36;16.40;99.90
66710;DHT22;53624;0.000;0.000;2022-09-09T02:56:09;16.00;99.90
66710;DHT22;53624;0.000;0.000;2022-09-09T02:58:43;16.00;99.90
66710;DHT22;53624;0.000;0.000;2022-09-09T03:01:12;16.50;99.90
66710;DHT22;53624;0.000;0.000;2022-09-09T03:03:40;16.70;99.90
66710;DHT22;53624;0.000;0.000;2022-09-09T03:06:14;16.60;99.90
66710;DHT22;53624;0.000;0.000;2022-09-09T03:08:46;16.70;99.90
66710;DHT22;53624;0.000;0.000;2022-09-09T03:11:19;16.80;99.90
66710;DHT22;53624;0.000;0.000;2022-09-09T03:13:48;16.60;99.90
66710;DHT22;53624;0.000;0.000;2022-09-09T03:16:16;16.40;99.90
66710;DHT22;53624;0.000;0.000;2022-09-09T03:18:47;16.20;99.90
66710;DHT22;53624;0.000;0.000;2022-09-09T03:21:15;16.00;99.90
66710;DHT22;53624;0.000;0.000;2022-09-09T03:23:43;16.30;99.90
66710;DHT22;53624;0.000;0.000;2022-09-09T03:26:11;16.50;99.90
66710;DHT22;53624;0.000;0.000;2022-09-09T03:28:44;16.60;99.90
66710;DHT22;53624;0.000;0.000;2022-09-09T03:31:16;16.60;99.90
66710;DHT22;53624;0.000;0.000;2022-09-09T03:33:45;16.70;99.90
66710;DHT22;53624;0.000;0.000;2022-09-09T03:36:15;16.70;99.90
66710;DHT22;53624;0.000;0.000;2022-09-09T03:38:43;16.60;99.90
66710;DHT22;53624;0.000;0.000;2022-09-09T03:41:12;16.30;99.90
66710;DHT22;53624;0.000;0.000;2022-09-09T03:43:39;16.40;99.90
66710;DHT22;53624;0.000;0.000;2022-09-09T03:46:07;16.40;99.90
66710;DHT22;53624;0.000;0.000;2022-09-09T03:48:36;16.40;99.90
66710;DHT22;53624;0.000;0.000;2022-09-09T03:51:04;16.40;99.90
66710;DHT22;53624;0.000;0.000;2022-09-09T03:53:33;16.20;99.90
66710;DHT22;53624;0.000;0.000;2022-09-09T03:56:02;16.30;99.90
66710;DHT22;53624;0.000;0.000;2022-09-09T03:58:30;16.10;99.90
66710;DHT22;53624;0.000;0.000;2022-09-09T04:01:06;16.20;99.90
66710;DHT22;53624;0.000;0.000;2022-09-09T04:03:35;16.20;99.90
66710;DHT22;53624;0.000;0.000;2022-09-09T04:06:04;16.20;99.90
66710;DHT22;53624;0.000;0.000;2022-09-09T04:08:33;16.20;99.90
66710;DHT22;53624;0.000;0.000;2022-09-09T04:11:02;16.20;99.90
66710;DHT22;53624;0.000;0.000;2022-09-09T04:13:31;16.20;99.90
66710;DHT22;53624;0.000;0.000;2022-09-09T04:16:01;16.20;99.90
66710;DHT22;53624;0.000;0.000;2022-09-09T04:18:30;16.20;99.90
66710;DHT22;53624;0.000;0.000;2022-09-09T04:20:58;16.10;99.90
66710;DHT22;53624;0.000;0.000;2022-09-09T04:23:30;15.90;99.90
66710;DHT22;53624;0.000;0.000;2022-09-09T04:26:00;16.00;99.90
66710;DHT22;53624;0.000;0.000;2022-09-09T04:28:28;15.80;99.90
66710;DHT22;53624;0.000;0.000;2022-09-09T04:31:03;15.70;99.90
66710;DHT22;53624;0.000;0.000;2022-09-09T04:33:30;15.80;99.90
66710;DHT22;53624;0.000;0.000;2022-09-09T04:35:58;15.90;99.90
66710;DHT22;53624;0.000;0.000;2022-09-09T04:38:26;15.90;99.90
66710;DHT22;53624;0.000;0.000;2022-09-09T04:40:56;15.80;99.90
66710;DHT22;53624;0.000;0.000;2022-09-09T04:43:25;15.80;99.90
66710;DHT22;53624;0.000;0.000;2022-09-09T04:45:54;15.80;99.90
66710;DHT22;53624;0.000;0.000;2022-09-09T04:48:24;15.90;99.90
66710;DHT22;53624;0.000;0.000;2022-09-09T04:50:55;16.00;99.90
66710;DHT22;53624;0.000;0.000;2022-09-09T04:53:23;16.10;99.90
66710;DHT22;53624;0.000;0.000;2022-09-09T04:55:52;16.00;99.90
66710;DHT22;53624;0.000;0.000;2022-09-09T04:58:21;15.90;99.90
66710;DHT22;53624;0.000;0.000;2022-09-09T05:00:50;15.90;99.90
66710;DHT22;53624;0.000;0.000;2022-09-09T05:03:18;15.90;99.90
66710;DHT22;53624;0.000;0.000;2022-09-09T05:05:46;15.90;99.90
66710;DHT22;53624;0.000;0.000;2022-09-09T05:08:13;15.70;99.90
66710;DHT22;53624;0.000;0.000;2022-09-09T05:10:41;15.70;99.90
66710;DHT22;53624;0.000;0.000;2022-09-09T05:13:09;15.60;99.90
66710;DHT22;53624;0.000;0.000;2022-09-09T05:15:38;15.70;99.90
66710;DHT22;53624;0.000;0.000;2022-09-09T05:18:07;15.80;99.90
66710;DHT22;53624;0.000;0.000;2022-09-09T05:20:34;15.80;99.90
66710;DHT22;53624;0.000;0.000;2022-09-09T05:23:02;15.80;99.90
66710;DHT22;53624;0.000;0.000;2022-09-09T05:25:32;15.60;99.90
66710;DHT22;53624;0.000;0.000;2022-09-09T05:27:59;15.60;99.90
66710;DHT22;53624;0.000;0.000;2022-09-09T05:30:27;15.70;99.90
66710;DHT22;53624;0.000;0.000;2022-09-09T05:32:57;15.80;99.90
66710;DHT22;53624;0.000;0.000;2022-09-09T05:35:24;15.70;99.90
66710;DHT22;53624;0.000;0.000;2022-09-09T05:37:52;15.80;99.90
66710;DHT22;53624;0.000;0.000;2022-09-09T05:40:20;15.90;99.90
66710;DHT22;53624;0.000;0.000;2022-09-09T05:42:48;15.80;99.90
66710;DHT22;53624;0.000;0.000;2022-09-09T05:45:16;15.80;99.90
66710;DHT22;53624;0.000;0.000;2022-09-09T05:47:43;15.90;99.90
66710;DHT22;53624;0.000;0.000;2022-09-09T05:50:15;15.80;99.90
66710;DHT22;53624;0.000;0.000;2022-09-09T05:52:43;15.90;99.90
66710;DHT22;53624;0.000;0.000;2022-09-09T05:55:10;15.90;99.90
66710;DHT22;53624;0.000;0.000;2022-09-09T05:57:38;16.00;99.90
66710;DHT22;53624;0.000;0.000;2022-09-09T06:00:06;16.00;99.90
66710;DHT22;53624;0.000;0.000;2022-09-09T06:02:39;16.00;99.90
66710;DHT22;53624;0.000;0.000;2022-09-09T06:05:09;16.00;99.90
66710;DHT22;53624;0.000;0.000;2022-09-09T06:07:39;15.90;99.90
66710;DHT22;53624;0.000;0.000;2022-09-09T06:10:09;15.90;99.90
66710;DHT22;53624;0.000;0.000;2022-09-09T06:12:36;16.00;99.90
66710;DHT22;53624;0.000;0.000;2022-09-09T06:15:05;16.00;99.90
66710;DHT22;53624;0.000;0.000;2022-09-09T06:17:33;15.70;99.90
66710;DHT22;53624;0.000;0.000;2022-09-09T06:20:01;15.80;99.90
66710;DHT22;53624;0.000;0.000;2022-09-09T06:22:29;15.90;99.90
66710;DHT22;53624;0.000;0.000;2022-09-09T06:24:58;16.00;99.90
66710;DHT22;53624;0.000;0.000;2022-09-09T06:27:27;16.10;99.90
66710;DHT22;53624;0.000;0.000;2022-09-09T06:29:56;16.10;99.90
66710;DHT22;53624;0.000;0.000;2022-09-09T06:32:23;15.90;99.90
66710;DHT22;53624;0.000;0.000;2022-09-09T06:34:51;16.00;99.90
66710;DHT22;53624;0.000;0.000;2022-09-09T06:37:18;16.20;99.90
66710;DHT22;53624;0.000;0.000;2022-09-09T06:39:49;16.30;99.90
66710;DHT22;53624;0.000;0.000;2022-09-09T06:42:19;16.40;99.90
66710;DHT22;53624;0.000;0.000;2022-09-09T06:44:49;16.50;99.90
66710;DHT22;53624;0.000;0.000;2022-09-09T06:47:23;16.70;99.90
66710;DHT22;53624;0.000;0.000;2022-09-09T06:49:51;16.80;99.90
66710;DHT22;53624;0.000;0.000;2022-09-09T06:52:18;16.80;99.90
66710;DHT22;53624;0.000;0.000;2022-09-09T06:54:47;16.80;99.90
66710;DHT22;53624;0.000;0.000;2022-09-09T06:57:16;16.60;99.90
66710;DHT22;53624;0.000;0.000;2022-09-09T06:59:45;16.70;99.90
66710;DHT22;53624;0.000;0.000;2022-09-09T07:02:12;16.80;99.90
66710;DHT22;53624;0.000;0.000;2022-09-09T07:04:40;17.00;99.90
66710;DHT22;53624;0.000;0.000;2022-09-09T07:07:08;17.10;99.90
66710;DHT22;53624;0.000;0.000;2022-09-09T07:09:38;16.80;99.90
66710;DHT22;53624;0.000;0.000;2022-09-09T07:12:05;17.20;99.90
66710;DHT22;53624;0.000;0.000;2022-09-09T07:14:35;17.30;99.90
66710;DHT22;53624;0.000;0.000;2022-09-09T07:17:07;17.30;99.90
66710;DHT22;53624;0.000;0.000;2022-09-09T07:19:37;17.30;99.90
66710;DHT22;53624;0.000;0.000;2022-09-09T07:22:05;17.00;99.90
66710;DHT22;53624;0.000;0.000;2022-09-09T07:24:34;17.60;99.90
66710;DHT22;53624;0.000;0.000;2022-09-09T07:27:02;19.20;99.90
66710;DHT22;53624;0.000;0.000;2022-09-09T07:29:30;20.10;99.90
66710;DHT22;53624;0.000;0.000;2022-09-09T07:31:57;21.10;99.90
66710;DHT22;53624;0.000;0.000;2022-09-09T07:34:32;20.90;99.90
66710;DHT22;53624;0.000;0.000;2022-09-09T07:37:00;20.10;99.90
66710;DHT22;53624;0.000;0.000;2022-09-09T07:39:28;20.10;99.90
66710;DHT22;53624;0.000;0.000;2022-09-09T07:41:56;21.00;99.90
66710;DHT22;53624;0.000;0.000;2022-09-09T07:44:24;21.20;99.90
66710;DHT22;53624;0.000;0.000;2022-09-09T07:47:01;21.00;99.90
66710;DHT22;53624;0.000;0.000;2022-09-09T07:49:36;20.00;99.90
66710;DHT22;53624;0.000;0.000;2022-09-09T07:52:05;20.20;99.90
66710;DHT22;53624;0.000;0.000;2022-09-09T07:54:33;20.30;99.90
66710;DHT22;53624;0.000;0.000;2022-09-09T07:57:03;20.80;99.90
66710;DHT22;53624;0.000;0.000;2022-09-09T07:59:34;21.30;99.90
66710;DHT22;53624;0.000;0.000;2022-09-09T08:02:02;22.30;99.90
66710;DHT22;53624;0.000;0.000;2022-09-09T08:04:32;22.90;99.90
66710;DHT22;53624;0.000;0.000;2022-09-09T08:07:03;23.20;99.90
66710;DHT22;53624;0.000;0.000;2022-09-09T08:09:36;23.70;98.30
66710;DHT22;53624;0.000;0.000;2022-09-09T08:12:09;24.50;96.80
66710;DHT22;53624;0.000;0.000;2022-09-09T08:14:39;25.00;95.30
66710;DHT22;53624;0.000;0.000;2022-09-09T08:17:06;25.30;94.10
66710;DHT22;53624;0.000;0.000;2022-09-09T08:19:34;25.70;93.70
66710;DHT22;53624;0.000;0.000;2022-09-09T08:22:05;25.90;93.30
66710;DHT22;53624;0.000;0.000;2022-09-09T08:24:35;26.10;92.80
66710;DHT22;53624;0.000;0.000;2022-09-09T08:27:03;26.20;91.20
66710;DHT22;53624;0.000;0.000;2022-09-09T08:29:31;26.40;91.40
66710;DHT22;53624;0.000;0.000;2022-09-09T08:31:58;26.90;91.00
66710;DHT22;53624;0.000;0.000;2022-09-09T08:34:28;26.10;91.90
66710;DHT22;53624;0.000;0.000;2022-09-09T08:36:59;25.50;92.80
66710;DHT22;53624;0.000;0.000;2022-09-09T08:39:36;24.60;94.40
66710;DHT22;53624;0.000;0.000;2022-09-09T08:42:08;23.80;95.30
66710;DHT22;53624;0.000;0.000;2022-09-09T08:47:24;23.70;95.80
66710;DHT22;53624;0.000;0.000;2022-09-09T08:50:02;23.40;96.60
66710;DHT22;53624;0.000;0.000;2022-09-09T08:52:31;23.10;95.80
66710;DHT22;53624;0.000;0.000;2022-09-09T08:55:03;23.20;96.30
66710;DHT22;53624;0.000;0.000;2022-09-09T08:57:32;23.10;97.20
66710;DHT22;53624;0.000;0.000;2022-09-09T09:00:01;23.50;95.60
66710;DHT22;53624;0.000;0.000;2022-09-09T09:02:31;23.70;96.20
66710;DHT22;53624;0.000;0.000;2022-09-09T09:05:06;23.60;95.40
66710;DHT22;53624;0.000;0.000;2022-09-09T09:07:41;23.50;97.00
66710;DHT22;53624;0.000;0.000;2022-09-09T09:10:15;23.80;96.80
66710;DHT22;53624;0.000;0.000;2022-09-09T09:12:44;23.60;95.60
66710;DHT22;53624;0.000;0.000;2022-09-09T09:15:16;24.00;94.80
66710;DHT22;53624;0.000;0.000;2022-09-09T09:17:46;24.10;95.60
66710;DHT22;53624;0.000;0.000;2022-09-09T09:20:16;23.90;94.00
66710;DHT22;53624;0.000;0.000;2022-09-09T09:22:47;23.80;93.20
66710;DHT22;53624;0.000;0.000;2022-09-09T09:25:20;23.60;94.20
66710;DHT22;53624;0.000;0.000;2022-09-09T09:27:50;23.30;93.60
66710;DHT22;53624;0.000;0.000;2022-09-09T09:30:23;23.30;93.10
66710;DHT22;53624;0.000;0.000;2022-09-09T09:32:53;23.00;91.80
66710;DHT22;53624;0.000;0.000;2022-09-09T09:35:21;22.90;92.80
66710;DHT22;53624;0.000;0.000;2022-09-09T09:37:50;22.60;93.30
66710;DHT22;53624;0.000;0.000;2022-09-09T09:40:20;23.40;92.70
66710;DHT22;53624;0.000;0.000;2022-09-09T09:42:49;23.50;90.80
66710;DHT22;53624;0.000;0.000;2022-09-09T09:45:23;23.40;90.70
66710;DHT22;53624;0.000;0.000;2022-09-09T09:47:59;23.60;88.60
66710;DHT22;53624;0.000;0.000;2022-09-09T09:50:29;24.00;89.60
66710;DHT22;53624;0.000;0.000;2022-09-09T09:52:58;23.80;90.20
66710;DHT22;53624;0.000;0.000;2022-09-09T09:55:29;24.20;88.50
66710;DHT22;53624;0.000;0.000;2022-09-09T09:58:01;24.60;91.40
66710;DHT22;53624;0.000;0.000;2022-09-09T10:00:29;24.90;90.30
66710;DHT22;53624;0.000;0.000;2022-09-09T10:03:12;24.40;84.80
66710;DHT22;53624;0.000;0.000;2022-09-09T10:05:46;24.70;87.50
66710;DHT22;53624;0.000;0.000;2022-09-09T10:08:14;24.90;88.70
66710;DHT22;53624;0.000;0.000;2022-09-09T10:10:48;24.50;88.00
66710;DHT22;53624;0.000;0.000;2022-09-09T10:13:18;23.70;87.80
66710;DHT22;53624;0.000;0.000;2022-09-09T10:15:48;23.80;89.30
66710;DHT22;53624;0.000;0.000;2022-09-09T10:18:34;23.90;89.40
66710;DHT22;53624;0.000;0.000;2022-09-09T10:21:05;23.80;90.00
66710;DHT22;53624;0.000;0.000;2022-09-09T10:23:41;24.10;85.00
66710;DHT22;53624;0.000;0.000;2022-09-09T10:26:19;24.30;91.30
66710;DHT22;53624;0.000;0.000;2022-09-09T10:29:03;24.60;87.20
66710;DHT22;53624;0.000;0.000;2022-09-09T10:31:37;24.40;84.30
66710;DHT22;53624;0.000;0.000;2022-09-09T10:34:12;24.20;84.90
66710;DHT22;53624;0.000;0.000;2022-09-09T10:36:43;24.20;84.40
66710;DHT22;53624;0.000;0.000;2022-09-09T10:39:14;24.40;86.60
66710;DHT22;53624;0.000;0.000;2022-09-09T10:41:48;24.40;89.70
66710;DHT22;53624;0.000;0.000;2022-09-09T10:44:25;24.50;86.60
66710;DHT22;53624;0.000;0.000;2022-09-09T10:46:58;24.60;86.80
66710;DHT22;53624;0.000;0.000;2022-09-09T10:49:35;24.40;83.60
66710;DHT22;53624;0.000;0.000;2022-09-09T10:52:05;24.10;84.30
66710;DHT22;53624;0.000;0.000;2022-09-09T10:54:38;23.70;86.50
66710;DHT22;53624;0.000;0.000;2022-09-09T10:57:13;23.50;87.00
66710;DHT22;53624;0.000;0.000;2022-09-09T10:59:43;23.80;91.00
66710;DHT22;53624;0.000;0.000;2022-09-09T11:02:14;24.20;86.80
66710;DHT22;53624;0.000;0.000;2022-09-09T11:04:47;24.60;88.10
66710;DHT22;53624;0.000;0.000;2022-09-09T11:07:19;24.80;84.50
66710;DHT22;53624;0.000;0.000;2022-09-09T11:09:52;24.50;84.70
66710;DHT22;53624;0.000;0.000;2022-09-09T11:12:23;24.40;85.00
66710;DHT22;53624;0.000;0.000;2022-09-09T11:14:51;24.30;87.70
66710;DHT22;53624;0.000;0.000;2022-09-09T11:17:21;24.10;84.70
66710;DHT22;53624;0.000;0.000;2022-09-09T11:19:50;24.30;87.90
66710;DHT22;53624;0.000;0.000;2022-09-09T11:22:21;24.60;85.20
66710;DHT22;53624;0.000;0.000;2022-09-09T11:24:52;24.80;85.50
66710;DHT22;53624;0.000;0.000;2022-09-09T11:27:25;24.60;82.00
66710;DHT22;53624;0.000;0.000;2022-09-09T11:30:00;24.60;86.60
66710;DHT22;53624;0.000;0.000;2022-09-09T11:35:22;23.90;85.20
66710;DHT22;53624;0.000;0.000;2022-09-09T11:37:56;23.70;84.70
66710;DHT22;53624;0.000;0.000;2022-09-09T11:40:26;23.70;87.70
66710;DHT22;53624;0.000;0.000;2022-09-09T11:43:05;23.90;89.90
66710;DHT22;53624;0.000;0.000;2022-09-09T11:45:35;24.40;90.50
66710;DHT22;53624;0.000;0.000;2022-09-09T11:48:03;24.80;83.30
66710;DHT22;53624;0.000;0.000;2022-09-09T11:50:35;25.00;87.00
66710;DHT22;53624;0.000;0.000;2022-09-09T11:53:05;24.30;83.50
66710;DHT22;53624;0.000;0.000;2022-09-09T11:55:33;24.00;80.50
66710;DHT22;53624;0.000;0.000;2022-09-09T11:58:03;24.20;87.50
66710;DHT22;53624;0.000;0.000;2022-09-09T12:00:34;24.70;81.50
66710;DHT22;53624;0.000;0.000;2022-09-09T12:03:03;24.60;77.70
66710;DHT22;53624;0.000;0.000;2022-09-09T12:05:37;24.70;80.60
66710;DHT22;53624;0.000;0.000;2022-09-09T12:08:07;24.80;78.90
66710;DHT22;53624;0.000;0.000;2022-09-09T12:10:38;24.60;82.70
66710;DHT22;53624;0.000;0.000;2022-09-09T12:13:15;24.60;83.60
66710;DHT22;53624;0.000;0.000;2022-09-09T12:15:48;24.60;79.30
66710;DHT22;53624;0.000;0.000;2022-09-09T12:18:18;24.40;80.60
66710;DHT22;53624;0.000;0.000;2022-09-09T12:20:52;24.50;81.40
66710;DHT22;53624;0.000;0.000;2022-09-09T12:23:30;24.80;80.70
66710;DHT22;53624;0.000;0.000;2022-09-09T12:26:04;25.10;79.70
66710;DHT22;53624;0.000;0.000;2022-09-09T12:28:44;25.10;79.40
66710;DHT22;53624;0.000;0.000;2022-09-09T12:31:15;25.20;80.40
66710;DHT22;53624;0.000;0.000;2022-09-09T12:33:45;25.30;77.90
66710;DHT22;53624;0.000;0.000;2022-09-09T12:36:15;25.30;77.50
66710;DHT22;53624;0.000;0.000;2022-09-09T12:38:50;25.70;78.10
66710;DHT22;53624;0.000;0.000;2022-09-09T12:41:22;25.50;74.90
66710;DHT22;53624;0.000;0.000;2022-09-09T12:43:50;25.50;73.50
66710;DHT22;53624;0.000;0.000;2022-09-09T12:46:22;25.50;73.30
66710;DHT22;53624;0.000;0.000;2022-09-09T12:48:52;25.40;74.10
66710;DHT22;53624;0.000;0.000;2022-09-09T12:51:21;25.20;74.80
66710;DHT22;53624;0.000;0.000;2022-09-09T12:53:51;24.90;72.40
66710;DHT22;53624;0.000;0.000;2022-09-09T12:56:18;24.90;72.50
66710;DHT22;53624;0.000;0.000;2022-09-09T12:58:46;25.00;72.60
66710;DHT22;53624;0.000;0.000;2022-09-09T13:01:18;25.20;77.30
66710;DHT22;53624;0.000;0.000;2022-09-09T13:03:49;25.30;74.00
66710;DHT22;53624;0.000;0.000;2022-09-09T13:06:19;25.10;72.10
66710;DHT22;53624;0.000;0.000;2022-09-09T13:08:48;25.20;75.50
66710;DHT22;53624;0.000;0.000;2022-09-09T13:11:17;25.20;75.70
66710;DHT22;53624;0.000;0.000;2022-09-09T13:13:49;24.80;73.10
66710;DHT22;53624;0.000;0.000;2022-09-09T13:16:21;25.20;74.00
66710;DHT22;53624;0.000;0.000;2022-09-09T13:18:51;25.50;74.10
66710;DHT22;53624;0.000;0.000;2022-09-09T13:21:19;25.60;72.60
66710;DHT22;53624;0.000;0.000;2022-09-09T13:23:50;25.30;72.50
66710;DHT22;53624;0.000;0.000;2022-09-09T13:26:21;25.30;71.20
66710;DHT22;53624;0.000;0.000;2022-09-09T13:28:49;25.30;72.80
66710;DHT22;53624;0.000;0.000;2022-09-09T13:31:21;25.60;70.60
66710;DHT22;53624;0.000;0.000;2022-09-09T13:33:49;25.40;69.60
66710;DHT22;53624;0.000;0.000;2022-09-09T13:36:17;25.70;70.90
66710;DHT22;53624;0.000;0.000;2022-09-09T13:38:54;25.80;70.10
66710;DHT22;53624;0.000;0.000;2022-09-09T13:41:22;25.80;71.10
66710;DHT22;53624;0.000;0.000;2022-09-09T13:43:50;25.80;71.10
66710;DHT22;53624;0.000;0.000;2022-09-09T13:46:25;25.70;70.80
66710;DHT22;53624;0.000;0.000;2022-09-09T13:48:56;25.70;69.20
66710;DHT22;53624;0.000;0.000;2022-09-09T13:51:34;25.60;68.80
66710;DHT22;53624;0.000;0.000;2022-09-09T13:54:03;25.30;66.40
66710;DHT22;53624;0.000;0.000;2022-09-09T13:56:32;24.80;70.40
66710;DHT22;53624;0.000;0.000;2022-09-09T13:58:59;25.20;69.40
66710;DHT22;53624;0.000;0.000;2022-09-09T14:01:27;25.40;67.60
66710;DHT22;53624;0.000;0.000;2022-09-09T14:03:54;25.40;71.10
66710;DHT22;53624;0.000;0.000;2022-09-09T14:06:22;25.00;68.30
66710;DHT22;53624;0.000;0.000;2022-09-09T14:08:51;25.20;70.60
66710;DHT22;53624;0.000;0.000;2022-09-09T14:11:20;25.10;68.20
66710;DHT22;53624;0.000;0.000;2022-09-09T14:13:48;24.90;67.50
66710;DHT22;53624;0.000;0.000;2022-09-09T14:16:17;24.90;70.20
66710;DHT22;53624;0.000;0.000;2022-09-09T14:18:45;24.90;72.00
66710;DHT22;53624;0.000;0.000;2022-09-09T14:21:13;24.90;71.30
66710;DHT22;53624;0.000;0.000;2022-09-09T14:23:43;24.90;69.20
66710;DHT22;53624;0.000;0.000;2022-09-09T14:26:13;24.80;67.50
66710;DHT22;53624;0.000;0.000;2022-09-09T14:28:41;24.80;69.50
66710;DHT22;53624;0.000;0.000;2022-09-09T14:31:08;24.90;69.10
66710;DHT22;53624;0.000;0.000;2022-09-09T14:33:36;24.80;67.60
66710;DHT22;53624;0.000;0.000;2022-09-09T14:36:04;24.80;67.30
66710;DHT22;53624;0.000;0.000;2022-09-09T14:38:32;24.70;66.10
66710;DHT22;53624;0.000;0.000;2022-09-09T14:41:00;24.80;70.60
66710;DHT22;53624;0.000;0.000;2022-09-09T14:43:30;24.80;68.50
66710;DHT22;53624;0.000;0.000;2022-09-09T14:46:04;24.60;67.40
66710;DHT22;53624;0.000;0.000;2022-09-09T14:48:32;24.50;67.10
66710;DHT22;53624;0.000;0.000;2022-09-09T14:51:04;24.40;68.80
66710;DHT22;53624;0.000;0.000;2022-09-09T14:53:32;24.20;67.30
66710;DHT22;53624;0.000;0.000;2022-09-09T14:56:03;24.00;67.30
66710;DHT22;53624;0.000;0.000;2022-09-09T14:58:32;23.90;71.30
66710;DHT22;53624;0.000;0.000;2022-09-09T15:01:04;23.80;70.30
66710;DHT22;53624;0.000;0.000;2022-09-09T15:03:31;24.10;73.10
66710;DHT22;53624;0.000;0.000;2022-09-09T15:06:04;24.10;73.30
66710;DHT22;53624;0.000;0.000;2022-09-09T15:08:32;23.80;74.50
66710;DHT22;53624;0.000;0.000;2022-09-09T15:11:01;23.90;70.90
66710;DHT22;53624;0.000;0.000;2022-09-09T15:13:28;23.90;73.60
66710;DHT22;53624;0.000;0.000;2022-09-09T15:16:00;23.80;68.80
66710;DHT22;53624;0.000;0.000;2022-09-09T15:18:30;23.90;73.40
66710;DHT22;53624;0.000;0.000;2022-09-09T15:20:59;24.10;73.70
66710;DHT22;53624;0.000;0.000;2022-09-09T15:23:30;24.20;71.90
66710;DHT22;53624;0.000;0.000;2022-09-09T15:25:58;24.10;69.50
66710;DHT22;53624;0.000;0.000;2022-09-09T15:28:26;24.10;70.20
66710;DHT22;53624;0.000;0.000;2022-09-09T15:30:54;24.20;71.90
66710;DHT22;53624;0.000;0.000;2022-09-09T15:33:24;24.30;69.70
66710;DHT22;53624;0.000;0.000;2022-09-09T15:35:52;24.20;76.30
66710;DHT22;53624;0.000;0.000;2022-09-09T15:38:21;24.20;69.80
66710;DHT22;53624;0.000;0.000;2022-09-09T15:40:52;24.20;72.20
66710;DHT22;53624;0.000;0.000;2022-09-09T15:43:20;24.20;69.10
66710;DHT22;53624;0.000;0.000;2022-09-09T15:45:49;24.20;68.00
66710;DHT22;53624;0.000;0.000;2022-09-09T15:48:19;24.10;65.60
66710;DHT22;53624;0.000;0.000;2022-09-09T15:50:51;24.10;66.40
66710;DHT22;53624;0.000;0.000;2022-09-09T15:53:28;24.00;70.50
66710;DHT22;53624;0.000;0.000;2022-09-09T15:55:55;24.00;72.20
66710;DHT22;53624;0.000;0.000;2022-09-09T15:58:23;23.90;72.40
66710;DHT22;53624;0.000;0.000;2022-09-09T16:00:51;23.80;69.20
66710;DHT22;53624;0.000;0.000;2022-09-09T16:03:19;23.70;69.60
66710;DHT22;53624;0.000;0.000;2022-09-09T16:05:51;23.60;68.30
66710;DHT22;53624;0.000;0.000;2022-09-09T16:08:19;23.60;71.00
66710;DHT22;53624;0.000;0.000;2022-09-09T16:10:46;23.50;72.00
66710;DHT22;53624;0.000;0.000;2022-09-09T16:13:14;23.40;73.60
66710;DHT22;53624;0.000;0.000;2022-09-09T16:15:41;23.40;74.00